sensor_id;sensor_type;location;lat;lon;timestamp;pressure;altitude;pressure_sealevel;temperature;humidity
78623;BME280;67943;54.412;9.502;2023-06-01T00:02:00;102043.66;;;12.35;68.65
78623;BME280;67943;54.412;9.502;2023-06-01T00:07:01;102044.56;;;12.33;68.63
78623;BME280;67943;54.412;9.502;2023-06-01T00:12:05;102026.09;;;12.30;68.63
78623;BME280;67943;54.412;9.502;2023-06-01T00:17:07;102032.22;;;12.33;68.33
78623;BME280;67943;54.412;9.502;2023-06-01T00:22:10;102027.06;;;12.18;69.13
78623;BME280;67943;54.412;9.502;2023-06-01T00:27:13;102026.16;;;12.24;69.17
78623;BME280;67943;54.412;9.502;2023-06-01T00:32:14;102020.94;;;12.14;69.42
78623;BME280;67943;54.412;9.502;2023-06-01T00:37:16;102025.41;;;12.11;69.61
78623;BME280;67943;54.412;9.502;2023-06-01T00:42:19;102014.78;;;12.15;69.26
78623;BME280;67943;54.412;9.502;2023-06-01T00:47:20;102022.69;;;12.15;68.66
78623;BME280;67943;54.412;9.502;2023-06-01T00:52:23;102019.28;;;12.07;69.05
78623;BME280;67943;54.412;9.502;2023-06-01T00:57:27;102013.97;;;12.10;69.06
78623;BME280;67943;54.412;9.502;2023-06-01T01:02:29;102021.00;;;12.11;68.28
78623;BME280;67943;54.412;9.502;2023-06-01T01:07:38;102025.34;;;12.14;68.02
78623;BME280;67943;54.412;9.502;2023-06-01T01:12:47;102031.53;;;12.11;68.45
78623;BME280;67943;54.412;9.502;2023-06-01T01:17:56;102010.47;;;12.08;68.69
78623;BME280;67943;54.412;9.502;2023-06-01T01:23:16;102016.50;;;12.18;68.59
78623;BME280;67943;54.412;9.502;2023-06-01T01:28:36;102001.56;;;12.18;68.76
78623;BME280;67943;54.412;9.502;2023-06-01T01:33:39;102005.00;;;12.27;68.35
78623;BME280;67943;54.412;9.502;2023-06-01T01:38:42;101989.16;;;12.30;68.32
78623;BME280;67943;54.412;9.502;2023-06-01T01:43:45;102010.31;;;12.24;68.51
78623;BME280;67943;54.412;9.502;2023-06-01T01:48:51;101992.75;;;12.20;68.69
78623;BME280;67943;54.412;9.502;2023-06-01T01:53:54;101987.44;;;12.24;68.69
78623;BME280;67943;54.412;9.502;2023-06-01T01:58:59;101994.63;;;12.11;69.12
78623;BME280;67943;54.412;9.502;2023-06-01T02:04:02;101993.59;;;12.26;69.00
78623;BME280;67943;54.412;9.502;2023-06-01T02:09:07;101983.03;;;12.26;68.59
78623;BME280;67943;54.412;9.502;2023-06-01T02:14:10;101979.50;;;12.26;68.44
78623;BME280;67943;54.412;9.502;2023-06-01T02:19:11;101975.09;;;12.28;68.42
78623;BME280;67943;54.412;9.502;2023-06-01T02:24:15;101978.53;;;12.36;68.19
78623;BME280;67943;54.412;9.502;2023-06-01T02:29:19;101967.13;;;12.34;67.86
78623;BME280;67943;54.412;9.502;2023-06-01T02:34:22;101971.78;;;12.07;68.47
78623;BME280;67943;54.412;9.502;2023-06-01T02:39:24;101960.47;;;11.93;69.14
78623;BME280;67943;54.412;9.502;2023-06-01T02:44:26;101949.81;;;12.04;69.00
78623;BME280;67943;54.412;9.502;2023-06-01T02:49:28;101945.41;;;12.07;69.17
78623;BME280;67943;54.412;9.502;2023-06-01T02:54:30;101946.19;;;12.14;68.90
78623;BME280;67943;54.412;9.502;2023-06-01T02:59:32;101933.88;;;12.14;69.03
78623;BME280;67943;54.412;9.502;2023-06-01T03:04:34;101933.78;;;12.24;68.65
78623;BME280;67943;54.412;9.502;2023-06-01T03:09:35;101925.13;;;12.12;68.86
78623;BME280;67943;54.412;9.502;2023-06-01T03:14:38;101928.66;;;12.10;69.11
78623;BME280;67943;54.412;9.502;2023-06-01T03:19:40;101919.00;;;12.09;69.29
78623;BME280;67943;54.412;9.502;2023-06-01T03:24:41;101911.06;;;12.12;69.43
78623;BME280;67943;54.412;9.502;2023-06-01T03:29:46;101906.53;;;12.22;69.35
78623;BME280;67943;54.412;9.502;2023-06-01T03:34:48;101903.03;;;12.20;69.10
78623;BME280;67943;54.412;9.502;2023-06-01T03:39:49;101914.47;;;12.20;69.30
78623;BME280;67943;54.412;9.502;2023-06-01T03:44:52;101911.81;;;12.22;69.19
78623;BME280;67943;54.412;9.502;2023-06-01T03:49:54;101911.72;;;12.31;68.24
78623;BME280;67943;54.412;9.502;2023-06-01T03:54:55;101905.66;;;12.21;68.32
78623;BME280;67943;54.412;9.502;2023-06-01T03:59:58;101925.13;;;12.11;68.27
78623;BME280;67943;54.412;9.502;2023-06-01T04:05:00;101918.13;;;12.07;68.74
78623;BME280;67943;54.412;9.502;2023-06-01T04:10:02;101916.44;;;12.01;68.84
78623;BME280;67943;54.412;9.502;2023-06-01T04:15:06;101910.28;;;12.02;68.36
78623;BME280;67943;54.412;9.502;2023-06-01T04:20:10;101905.88;;;12.03;68.50
78623;BME280;67943;54.412;9.502;2023-06-01T04:25:14;101907.63;;;12.02;68.49
78623;BME280;67943;54.412;9.502;2023-06-01T04:30:19;101900.63;;;12.00;68.45
78623;BME280;67943;54.412;9.502;2023-06-01T04:35:20;101899.63;;;12.11;68.41
78623;BME280;67943;54.412;9.502;2023-06-01T04:40:22;101896.78;;;12.28;67.55
78623;BME280;67943;54.412;9.502;2023-06-01T04:45:25;101899.50;;;12.21;67.91
78623;BME280;67943;54.412;9.502;2023-06-01T04:50:26;101892.63;;;12.09;67.23
78623;BME280;67943;54.412;9.502;2023-06-01T04:55:29;101891.75;;;12.07;67.19
78623;BME280;67943;54.412;9.502;2023-06-01T05:00:32;101907.53;;;12.11;67.10
78623;BME280;67943;54.412;9.502;2023-06-01T05:05:34;101898.63;;;12.20;66.72
78623;BME280;67943;54.412;9.502;2023-06-01T05:10:35;101902.09;;;12.27;67.01
78623;BME280;67943;54.412;9.502;2023-06-01T05:15:38;101888.81;;;12.36;66.45
78623;BME280;67943;54.412;9.502;2023-06-01T05:20:39;101885.38;;;12.28;66.59
78623;BME280;67943;54.412;9.502;2023-06-01T05:25:41;101890.69;;;12.23;66.85
78623;BME280;67943;54.412;9.502;2023-06-01T05:30:44;101894.91;;;12.39;66.84
78623;BME280;67943;54.412;9.502;2023-06-01T05:35:45;101876.28;;;12.50;65.70
78623;BME280;67943;54.412;9.502;2023-06-01T05:40:47;101872.84;;;12.43;65.51
78623;BME280;67943;54.412;9.502;2023-06-01T05:45:50;101873.56;;;12.59;65.75
78623;BME280;67943;54.412;9.502;2023-06-01T05:50:51;101874.50;;;12.52;65.50
78623;BME280;67943;54.412;9.502;2023-06-01T05:55:53;101868.34;;;12.53;65.89
78623;BME280;67943;54.412;9.502;2023-06-01T06:00:56;101869.00;;;12.70;65.08
78623;BME280;67943;54.412;9.502;2023-06-01T06:05:57;101871.13;;;13.05;64.26
78623;BME280;67943;54.412;9.502;2023-06-01T06:10:59;101872.16;;;12.97;64.10
78623;BME280;67943;54.412;9.502;2023-06-01T06:16:02;101872.09;;;13.00;63.96
78623;BME280;67943;54.412;9.502;2023-06-01T06:21:05;101875.44;;;13.12;64.64
78623;BME280;67943;54.412;9.502;2023-06-01T06:26:06;101864.63;;;13.29;63.74
78623;BME280;67943;54.412;9.502;2023-06-01T06:31:09;101866.47;;;13.27;63.56
78623;BME280;67943;54.412;9.502;2023-06-01T06:36:11;101861.91;;;13.35;63.67
78623;BME280;67943;54.412;9.502;2023-06-01T06:41:12;101865.28;;;13.43;63.63
78623;BME280;67943;54.412;9.502;2023-06-01T06:46:15;101859.03;;;13.49;63.32
78623;BME280;67943;54.412;9.502;2023-06-01T06:51:16;101865.09;;;13.56;62.61
78623;BME280;67943;54.412;9.502;2023-06-01T06:56:18;101871.06;;;13.67;62.68
78623;BME280;67943;54.412;9.502;2023-06-01T07:01:22;101874.59;;;13.66;62.60
78623;BME280;67943;54.412;9.502;2023-06-01T07:06:25;101871.09;;;13.65;62.23
78623;BME280;67943;54.412;9.502;2023-06-01T07:11:27;101869.28;;;13.69;61.91
78623;BME280;67943;54.412;9.502;2023-06-01T07:16:30;101878.16;;;13.65;62.53
78623;BME280;67943;54.412;9.502;2023-06-01T07:21:31;101877.06;;;13.76;62.73
78623;BME280;67943;54.412;9.502;2023-06-01T07:26:33;101875.25;;;13.80;62.47
78623;BME280;67943;54.412;9.502;2023-06-01T07:31:36;101870.88;;;13.79;62.34
78623;BME280;67943;54.412;9.502;2023-06-01T07:36:39;101864.31;;;13.98;62.21
78623;BME280;67943;54.412;9.502;2023-06-01T07:41:41;101858.13;;;13.99;61.98
78623;BME280;67943;54.412;9.502;2023-06-01T07:46:46;101861.41;;;14.13;61.22
78623;BME280;67943;54.412;9.502;2023-06-01T07:51:48;101852.25;;;14.30;60.46
78623;BME280;67943;54.412;9.502;2023-06-01T07:56:51;101859.09;;;14.43;59.76
78623;BME280;67943;54.412;9.502;2023-06-01T08:01:55;101857.78;;;14.62;59.00
78623;BME280;67943;54.412;9.502;2023-06-01T08:06:57;101867.34;;;14.69;59.21
78623;BME280;67943;54.412;9.502;2023-06-01T08:11:59;101854.16;;;15.05;58.97
78623;BME280;67943;54.412;9.502;2023-06-01T08:17:02;101859.31;;;15.48;57.43
78623;BME280;67943;54.412;9.502;2023-06-01T08:22:06;101861.19;;;15.43;56.71
78623;BME280;67943;54.412;9.502;2023-06-01T08:27:17;101865.25;;;15.59;57.17
78623;BME280;67943;54.412;9.502;2023-06-01T08:32:20;101867.34;;;15.80;56.75
78623;BME280;67943;54.412;9.502;2023-06-01T08:37:21;101868.34;;;15.76;57.00
78623;BME280;67943;54.412;9.502;2023-06-01T08:42:28;101865.91;;;15.67;57.26
78623;BME280;67943;54.412;9.502;2023-06-01T08:47:32;101873.06;;;15.64;56.53
78623;BME280;67943;54.412;9.502;2023-06-01T08:52:34;101860.72;;;15.63;56.59
78623;BME280;67943;54.412;9.502;2023-06-01T08:57:36;101848.88;;;15.76;56.05
78623;BME280;67943;54.412;9.502;2023-06-01T09:02:42;101854.91;;;15.82;56.09
78623;BME280;67943;54.412;9.502;2023-06-01T09:07:44;101848.91;;;16.08;55.34
78623;BME280;67943;54.412;9.502;2023-06-01T09:12:51;101846.63;;;16.26;54.93
78623;BME280;67943;54.412;9.502;2023-06-01T09:18:05;101858.59;;;17.01;53.75
78623;BME280;67943;54.412;9.502;2023-06-01T09:23:07;101840.81;;;17.29;52.33
78623;BME280;67943;54.412;9.502;2023-06-01T09:28:09;101852.88;;;17.39;50.76
78623;BME280;67943;54.412;9.502;2023-06-01T09:33:13;101847.56;;;17.39;51.46
78623;BME280;67943;54.412;9.502;2023-06-01T09:38:20;101832.31;;;17.44;52.20
78623;BME280;67943;54.412;9.502;2023-06-01T09:43:22;101839.38;;;17.45;51.73
78623;BME280;67943;54.412;9.502;2023-06-01T09:48:25;101849.00;;;17.49;51.77
78623;BME280;67943;54.412;9.502;2023-06-01T09:53:39;101827.72;;;17.23;52.98
78623;BME280;67943;54.412;9.502;2023-06-01T09:58:41;101836.00;;;17.67;52.13
78623;BME280;67943;54.412;9.502;2023-06-01T10:03:46;101838.06;;;18.33;49.89
78623;BME280;67943;54.412;9.502;2023-06-01T10:08:48;101818.31;;;18.15;49.33
78623;BME280;67943;54.412;9.502;2023-06-01T10:13:51;101819.50;;;18.53;48.75
78623;BME280;67943;54.412;9.502;2023-06-01T10:18:54;101808.97;;;18.74;48.52
78623;BME280;67943;54.412;9.502;2023-06-01T10:23:56;101815.31;;;18.93;48.18
78623;BME280;67943;54.412;9.502;2023-06-01T10:28:57;101814.63;;;19.10;47.30
78623;BME280;67943;54.412;9.502;2023-06-01T10:34:01;101802.84;;;18.94;47.51
78623;BME280;67943;54.412;9.502;2023-06-01T10:39:21;101808.53;;;19.28;47.02
78623;BME280;67943;54.412;9.502;2023-06-01T10:44:45;101792.13;;;19.59;46.94
78623;BME280;67943;54.412;9.502;2023-06-01T10:50:09;101797.88;;;19.48;46.31
78623;BME280;67943;54.412;9.502;2023-06-01T10:55:22;101787.91;;;19.53;45.81
78623;BME280;67943;54.412;9.502;2023-06-01T11:00:24;101788.91;;;19.92;46.15
78623;BME280;67943;54.412;9.502;2023-06-01T11:05:47;101792.13;;;20.18;44.44
78623;BME280;67943;54.412;9.502;2023-06-01T11:10:56;101785.34;;;19.71;44.74
78623;BME280;67943;54.412;9.502;2023-06-01T11:16:29;101781.75;;;19.92;45.29
78623;BME280;67943;54.412;9.502;2023-06-01T11:21:35;101783.72;;;20.26;45.25
78623;BME280;67943;54.412;9.502;2023-06-01T11:26:39;101775.84;;;20.43;44.90
78623;BME280;67943;54.412;9.502;2023-06-01T11:31:43;101769.78;;;20.40;43.65
78623;BME280;67943;54.412;9.502;2023-06-01T11:36:48;101772.44;;;20.01;44.79
78623;BME280;67943;54.412;9.502;2023-06-01T11:42:02;101766.56;;;20.13;44.11
78623;BME280;67943;54.412;9.502;2023-06-01T11:47:05;101765.75;;;20.30;44.32
78623;BME280;67943;54.412;9.502;2023-06-01T11:52:09;101766.44;;;20.72;43.16
78623;BME280;67943;54.412;9.502;2023-06-01T11:57:11;101768.25;;;20.72;42.51
78623;BME280;67943;54.412;9.502;2023-06-01T12:02:20;101767.94;;;20.59;42.50
78623;BME280;67943;54.412;9.502;2023-06-01T12:07:24;101755.44;;;20.78;41.50
78623;BME280;67943;54.412;9.502;2023-06-01T12:12:26;101764.50;;;20.93;42.62
78623;BME280;67943;54.412;9.502;2023-06-01T12:17:47;101756.56;;;20.92;42.10
78623;BME280;67943;54.412;9.502;2023-06-01T12:22:50;101765.38;;;20.94;41.70
78623;BME280;67943;54.412;9.502;2023-06-01T12:28:02;101757.50;;;21.08;42.07
78623;BME280;67943;54.412;9.502;2023-06-01T12:33:04;101747.72;;;21.26;41.52
78623;BME280;67943;54.412;9.502;2023-06-01T12:38:08;101744.75;;;21.13;41.86
78623;BME280;67943;54.412;9.502;2023-06-01T12:43:17;101733.03;;;20.62;41.69
78623;BME280;67943;54.412;9.502;2023-06-01T12:48:31;101734.97;;;20.77;42.91
78623;BME280;67943;54.412;9.502;2023-06-01T12:53:34;101739.41;;;20.96;42.50
78623;BME280;67943;54.412;9.502;2023-06-01T12:58:36;101725.88;;;20.99;43.34
78623;BME280;67943;54.412;9.502;2023-06-01T13:03:38;101732.25;;;21.13;41.32
78623;BME280;67943;54.412;9.502;2023-06-01T13:08:41;101737.97;;;20.88;42.20
78623;BME280;67943;54.412;9.502;2023-06-01T13:13:42;101740.88;;;20.84;42.44
78623;BME280;67943;54.412;9.502;2023-06-01T13:18:44;101735.75;;;20.79;42.58
78623;BME280;67943;54.412;9.502;2023-06-01T13:23:47;101733.34;;;20.56;43.09
78623;BME280;67943;54.412;9.502;2023-06-01T13:28:48;101724.38;;;20.57;43.37
78623;BME280;67943;54.412;9.502;2023-06-01T13:33:50;101726.47;;;20.50;43.50
78623;BME280;67943;54.412;9.502;2023-06-01T13:38:53;101726.75;;;20.63;42.97
78623;BME280;67943;54.412;9.502;2023-06-01T13:43:54;101727.84;;;20.59;43.70
78623;BME280;67943;54.412;9.502;2023-06-01T13:48:56;101734.78;;;20.63;43.06
78623;BME280;67943;54.412;9.502;2023-06-01T13:53:59;101727.41;;;20.31;43.97
78623;BME280;67943;54.412;9.502;2023-06-01T13:59:00;101727.81;;;20.21;43.03
78623;BME280;67943;54.412;9.502;2023-06-01T14:04:02;101734.75;;;20.26;43.64
78623;BME280;67943;54.412;9.502;2023-06-01T14:09:05;101727.06;;;20.19;43.54
78623;BME280;67943;54.412;9.502;2023-06-01T14:14:07;101723.72;;;20.14;43.30
78623;BME280;67943;54.412;9.502;2023-06-01T14:19:09;101710.66;;;20.08;43.44
78623;BME280;67943;54.412;9.502;2023-06-01T14:24:11;101721.47;;;19.86;43.98
78623;BME280;67943;54.412;9.502;2023-06-01T14:29:13;101724.94;;;20.07;43.88
78623;BME280;67943;54.412;9.502;2023-06-01T14:34:14;101723.25;;;19.86;43.80
78623;BME280;67943;54.412;9.502;2023-06-01T14:39:17;101716.66;;;19.74;44.28
78623;BME280;67943;54.412;9.502;2023-06-01T14:44:18;101718.84;;;19.85;44.27
78623;BME280;67943;54.412;9.502;2023-06-01T14:49:20;101718.59;;;20.10;43.76
78623;BME280;67943;54.412;9.502;2023-06-01T14:54:23;101708.50;;;20.16;43.12
78623;BME280;67943;54.412;9.502;2023-06-01T14:59:25;101717.00;;;19.87;43.43
78623;BME280;67943;54.412;9.502;2023-06-01T15:04:26;101726.34;;;19.77;43.73
78623;BME280;67943;54.412;9.502;2023-06-01T15:09:29;101723.88;;;19.72;44.85
78623;BME280;67943;54.412;9.502;2023-06-01T15:14:30;101719.25;;;19.76;44.28
78623;BME280;67943;54.412;9.502;2023-06-01T15:19:32;101714.16;;;19.51;44.41
78623;BME280;67943;54.412;9.502;2023-06-01T15:24:34;101715.06;;;19.50;44.28
78623;BME280;67943;54.412;9.502;2023-06-01T15:29:37;101711.78;;;19.23;45.14
78623;BME280;67943;54.412;9.502;2023-06-01T15:34:38;101718.00;;;19.44;44.99
78623;BME280;67943;54.412;9.502;2023-06-01T15:39:42;101715.47;;;19.41;45.00
78623;BME280;67943;54.412;9.502;2023-06-01T15:44:44;101729.72;;;19.40;43.77
78623;BME280;67943;54.412;9.502;2023-06-01T15:49:45;101708.97;;;19.06;44.40
78623;BME280;67943;54.412;9.502;2023-06-01T15:54:48;101723.69;;;18.94;45.77
78623;BME280;67943;54.412;9.502;2023-06-01T15:59:50;101719.94;;;19.20;45.25
78623;BME280;67943;54.412;9.502;2023-06-01T16:04:51;101723.41;;;19.22;44.39
78623;BME280;67943;54.412;9.502;2023-06-01T16:09:54;101708.19;;;19.04;45.43
78623;BME280;67943;54.412;9.502;2023-06-01T16:14:55;101693.31;;;18.98;46.73
78623;BME280;67943;54.412;9.502;2023-06-01T16:19:57;101703.16;;;18.76;45.59
78623;BME280;67943;54.412;9.502;2023-06-01T16:25:01;101686.22;;;18.53;46.60
78623;BME280;67943;54.412;9.502;2023-06-01T16:30:04;101682.28;;;18.42;46.41
78623;BME280;67943;54.412;9.502;2023-06-01T16:35:06;101675.50;;;18.33;47.30
78623;BME280;67943;54.412;9.502;2023-06-01T16:40:10;101672.34;;;18.23;47.41
78623;BME280;67943;54.412;9.502;2023-06-01T16:45:12;101668.25;;;18.15;47.46
78623;BME280;67943;54.412;9.502;2023-06-01T16:50:14;101659.47;;;18.13;47.67
78623;BME280;67943;54.412;9.502;2023-06-01T16:55:17;101670.53;;;18.02;47.94
78623;BME280;67943;54.412;9.502;2023-06-01T17:00:19;101657.75;;;17.64;49.38
78623;BME280;67943;54.412;9.502;2023-06-01T17:05:20;101655.81;;;17.69;49.29
78623;BME280;67943;54.412;9.502;2023-06-01T17:10:23;101660.56;;;17.61;49.35
78623;BME280;67943;54.412;9.502;2023-06-01T17:15:25;101655.34;;;17.58;49.40
78623;BME280;67943;54.412;9.502;2023-06-01T17:20:27;101659.00;;;17.30;50.57
78623;BME280;67943;54.412;9.502;2023-06-01T17:25:30;101658.13;;;17.30;50.44
78623;BME280;67943;54.412;9.502;2023-06-01T17:30:31;101652.00;;;17.03;51.35
78623;BME280;67943;54.412;9.502;2023-06-01T17:35:33;101656.31;;;16.80;51.81
78623;BME280;67943;54.412;9.502;2023-06-01T17:40:35;101656.72;;;16.68;53.61
78623;BME280;67943;54.412;9.502;2023-06-01T17:45:37;101662.28;;;16.33;54.21
78623;BME280;67943;54.412;9.502;2023-06-01T17:50:39;101676.00;;;16.17;55.12
78623;BME280;67943;54.412;9.502;2023-06-01T17:55:42;101684.47;;;16.02;55.40
78623;BME280;67943;54.412;9.502;2023-06-01T18:00:43;101684.41;;;16.04;55.49
78623;BME280;67943;54.412;9.502;2023-06-01T18:05:45;101680.91;;;16.03;55.78
78623;BME280;67943;54.412;9.502;2023-06-01T18:10:48;101681.81;;;16.02;56.15
78623;BME280;67943;54.412;9.502;2023-06-01T18:15:49;101677.47;;;16.00;56.90
78623;BME280;67943;54.412;9.502;2023-06-01T18:20:51;101692.53;;;15.68;57.44
78623;BME280;67943;54.412;9.502;2023-06-01T18:25:54;101688.50;;;15.53;58.03
78623;BME280;67943;54.412;9.502;2023-06-01T18:30:55;101690.34;;;15.51;58.07
78623;BME280;67943;54.412;9.502;2023-06-01T18:35:57;101684.28;;;15.46;58.23
78623;BME280;67943;54.412;9.502;2023-06-01T18:41:00;101680.81;;;15.44;58.25
78623;BME280;67943;54.412;9.502;2023-06-01T18:46:01;101673.16;;;15.32;58.42
78623;BME280;67943;54.412;9.502;2023-06-01T18:51:03;101675.34;;;15.18;58.85
78623;BME280;67943;54.412;9.502;2023-06-01T18:56:07;101675.84;;;15.00;59.69
78623;BME280;67943;54.412;9.502;2023-06-01T19:01:08;101677.66;;;14.98;59.66
78623;BME280;67943;54.412;9.502;2023-06-01T19:06:11;101678.09;;;14.79;60.30
78623;BME280;67943;54.412;9.502;2023-06-01T19:11:14;101674.63;;;14.77;60.49
78623;BME280;67943;54.412;9.502;2023-06-01T19:16:17;101661.56;;;14.71;60.83
78623;BME280;67943;54.412;9.502;2023-06-01T19:21:21;101675.09;;;14.59;61.41
78623;BME280;67943;54.412;9.502;2023-06-01T19:26:25;101681.53;;;14.47;61.64
78623;BME280;67943;54.412;9.502;2023-06-01T19:31:30;101678.19;;;14.39;61.83
78623;BME280;67943;54.412;9.502;2023-06-01T19:36:53;101685.34;;;14.34;61.98
78623;BME280;67943;54.412;9.502;2023-06-01T19:42:06;101681.16;;;14.24;62.40
78623;BME280;67943;54.412;9.502;2023-06-01T19:47:18;101682.19;;;14.17;62.74
78623;BME280;67943;54.412;9.502;2023-06-01T19:52:34;101683.38;;;14.05;63.39
78623;BME280;67943;54.412;9.502;2023-06-01T19:57:41;101680.28;;;13.85;64.00
78623;BME280;67943;54.412;9.502;2023-06-01T20:02:44;101683.19;;;13.71;64.56
78623;BME280;67943;54.412;9.502;2023-06-01T20:07:48;101689.69;;;13.57;64.99
78623;BME280;67943;54.412;9.502;2023-06-01T20:12:54;101694.19;;;13.51;65.31
78623;BME280;67943;54.412;9.502;2023-06-01T20:17:57;101697.16;;;13.33;65.93
78623;BME280;67943;54.412;9.502;2023-06-01T20:23:01;101707.94;;;13.23;66.47
78623;BME280;67943;54.412;9.502;2023-06-01T20:28:06;101703.66;;;13.15;66.79
78623;BME280;67943;54.412;9.502;2023-06-01T20:33:09;101700.25;;;13.06;67.30
78623;BME280;67943;54.412;9.502;2023-06-01T20:38:12;101704.72;;;13.02;67.42
78623;BME280;67943;54.412;9.502;2023-06-01T20:43:22;101712.72;;;12.99;67.47
78623;BME280;67943;54.412;9.502;2023-06-01T20:48:32;101706.69;;;12.93;67.81
78623;BME280;67943;54.412;9.502;2023-06-01T20:53:36;101720.97;;;12.79;68.12
78623;BME280;67943;54.412;9.502;2023-06-01T20:58:39;101723.69;;;12.73;68.85
78623;BME280;67943;54.412;9.502;2023-06-01T21:03:41;101723.69;;;12.73;68.88
78623;BME280;67943;54.412;9.502;2023-06-01T21:08:42;101720.25;;;12.70;69.01
78623;BME280;67943;54.412;9.502;2023-06-01T21:13:45;101726.47;;;12.67;68.99
78623;BME280;67943;54.412;9.502;2023-06-01T21:18:47;101719.53;;;12.60;69.22
78623;BME280;67943;54.412;9.502;2023-06-01T21:23:48;101722.28;;;12.52;69.25
78623;BME280;67943;54.412;9.502;2023-06-01T21:28:52;101725.88;;;12.45;69.82
78623;BME280;67943;54.412;9.502;2023-06-01T21:33:54;101729.53;;;12.38;70.15
78623;BME280;67943;54.412;9.502;2023-06-01T21:38:55;101732.22;;;12.34;70.55
78623;BME280;67943;54.412;9.502;2023-06-01T21:43:59;101737.50;;;12.34;70.39
78623;BME280;67943;54.412;9.502;2023-06-01T21:49:00;101735.78;;;12.31;70.88
78623;BME280;67943;54.412;9.502;2023-06-01T21:54:02;101756.94;;;12.28;70.96
78623;BME280;67943;54.412;9.502;2023-06-01T21:59:05;101743.72;;;12.28;71.00
78623;BME280;67943;54.412;9.502;2023-06-01T22:04:10;101747.31;;;12.23;70.52
78623;BME280;67943;54.412;9.502;2023-06-01T22:09:11;101757.94;;;12.16;70.76
78623;BME280;67943;54.412;9.502;2023-06-01T22:14:14;101753.56;;;12.15;70.65
78623;BME280;67943;54.412;9.502;2023-06-01T22:19:16;101754.53;;;12.11;70.68
78623;BME280;67943;54.412;9.502;2023-06-01T22:24:17;101756.41;;;12.02;70.29
78623;BME280;67943;54.412;9.502;2023-06-01T22:29:20;101760.91;;;11.92;69.68
78623;BME280;67943;54.412;9.502;2023-06-01T22:34:21;101765.50;;;11.76;69.47
78623;BME280;67943;54.412;9.502;2023-06-01T22:39:24;101768.22;;;11.63;70.42
78623;BME280;67943;54.412;9.502;2023-06-01T22:44:27;101770.97;;;11.54;70.41
78623;BME280;67943;54.412;9.502;2023-06-01T22:49:29;101764.88;;;11.47;70.41
78623;BME280;67943;54.412;9.502;2023-06-01T22:54:34;101765.00;;;11.35;72.27
78623;BME280;67943;54.412;9.502;2023-06-01T22:59:37;101759.84;;;11.24;72.24
78623;BME280;67943;54.412;9.502;2023-06-01T23:04:38;101771.28;;;11.20;72.87
78623;BME280;67943;54.412;9.502;2023-06-01T23:09:40;101768.75;;;11.05;71.69
78623;BME280;67943;54.412;9.502;2023-06-01T23:14:45;101772.41;;;10.92;71.58
78623;BME280;67943;54.412;9.502;2023-06-01T23:19:46;101773.34;;;10.83;72.56
78623;BME280;67943;54.412;9.502;2023-06-01T23:24:49;101782.19;;;10.70;72.42
78623;BME280;67943;54.412;9.502;2023-06-01T23:29:52;101784.00;;;10.65;73.15
78623;BME280;67943;54.412;9.502;2023-06-01T23:34:54;101795.41;;;10.65;73.63
78623;BME280;67943;54.412;9.502;2023-06-01T23:39:56;101790.13;;;10.65;73.61
78623;BME280;67943;54.412;9.502;2023-06-01T23:44:59;101793.66;;;10.64;74.13
78623;BME280;67943;54.412;9.502;2023-06-01T23:50:00;101787.41;;;10.74;73.83
78623;BME280;67943;54.412;9.502;2023-06-01T23:55:05;101787.41;;;10.77;73.93
